< < Back
Terminal Aerodrome Forecast


Current Version              Previous Versions:   1  2  3  4  5  6  7  8  9  

Terminal Aerodrome Forecast

165
FTUS42 KGSP 181148 CCA
TAFGSP
TAF COR
KGSP 181148Z 1812/1912 36003KT P6SM OVC090
      TEMPO 1812/1813 5SM BR BKN002
     FM181500 04006KT P6SM BKN050
     FM190500 06004KT 5SM BR OVC015
     FM190700 07010KT 4SM -SHRA BR OVC008=

Latest METAR

984
SAUS70 KWBC 181900 RRO
MTRGSP
METAR KGSP 181853Z 14005KT 10SM SCT034 OVC100 24/16 A2996 RMK AO2 SLP137
T02390161


USA.gov is the U.S. government's official web portal to all federal, state and local government web resources and services.